createdAt,value
2023-01-20T00:02:09.060Z,4.54
2023-01-20T00:04:44.672Z,4.04
2023-01-20T00:07:16.822Z,4.22
2023-01-20T00:09:49.152Z,4.37
2023-01-20T00:12:23.221Z,4.12
2023-01-20T00:14:55.681Z,3.39
2023-01-20T00:17:27.766Z,3.09
2023-01-20T00:20:03.139Z,3.08
2023-01-20T00:22:38.080Z,3.35
2023-01-20T00:25:12.055Z,3.67
2023-01-20T00:27:44.982Z,3.72
2023-01-20T00:30:19.186Z,4.23
2023-01-20T00:32:52.408Z,4.06
2023-01-20T00:35:29.869Z,3.50
2023-01-20T00:38:02.391Z,3.59
2023-01-20T00:40:38.244Z,4.00
2023-01-20T00:43:12.387Z,3.96
2023-01-20T00:45:47.529Z,3.99
2023-01-20T00:48:19.505Z,4.33
2023-01-20T00:51:03.933Z,2.88
2023-01-20T00:53:36.272Z,3.39
2023-01-20T00:56:10.169Z,3.68
2023-01-20T00:58:42.222Z,4.08
2023-01-20T01:01:15.503Z,4.35
2023-01-20T01:03:48.106Z,4.17
2023-01-20T01:06:24.040Z,4.30
2023-01-20T01:08:57.504Z,4.54
2023-01-20T01:11:30.372Z,4.45
2023-01-20T01:14:02.580Z,4.64
2023-01-20T01:16:35.251Z,4.37
2023-01-20T01:19:07.468Z,3.87
2023-01-20T01:21:42.840Z,3.50
2023-01-20T01:24:14.941Z,3.40
2023-01-20T01:26:47.676Z,3.57
2023-01-20T01:29:57.582Z,3.80
2023-01-20T01:32:34.066Z,3.79
2023-01-20T01:35:08.181Z,3.79
2023-01-20T01:37:43.283Z,3.76
2023-01-20T01:40:15.847Z,3.50
2023-01-20T01:42:48.353Z,3.81
2023-01-20T01:45:29.535Z,3.76
2023-01-20T01:48:09.101Z,3.19
2023-01-20T01:50:46.961Z,3.48
2023-01-20T01:53:22.346Z,3.57
2023-01-20T01:55:57.693Z,4.14
2023-01-20T01:58:38.820Z,3.83
2023-01-20T02:01:12.134Z,4.23
2023-01-20T02:03:57.281Z,3.82
2023-01-20T02:06:33.261Z,3.89
2023-01-20T02:09:09.327Z,4.04
2023-01-20T02:11:48.698Z,3.05
2023-01-20T02:14:23.424Z,3.18
2023-01-20T02:17:03.662Z,3.48
2023-01-20T02:20:06.304Z,3.81
2023-01-20T02:22:50.005Z,3.68
2023-01-20T02:25:50.099Z,3.47
2023-01-20T02:28:46.459Z,3.64
2023-01-20T02:31:44.613Z,2.20
2023-01-20T02:34:28.059Z,2.38
2023-01-20T02:37:09.982Z,2.69
2023-01-20T02:39:51.881Z,3.00
2023-01-20T02:42:30.960Z,2.37
2023-01-20T02:45:09.761Z,2.75
2023-01-20T02:47:51.627Z,3.14
2023-01-20T02:50:33.791Z,3.12
2023-01-20T02:53:09.302Z,3.17
2023-01-20T02:55:45.682Z,2.87
2023-01-20T02:58:26.662Z,2.53
2023-01-20T03:01:03.832Z,2.74
2023-01-20T03:03:43.394Z,2.65
2023-01-20T03:06:23.948Z,3.21
2023-01-20T03:08:59.461Z,2.60
2023-01-20T03:11:36.022Z,2.55
2023-01-20T03:14:13.424Z,2.78
2023-01-20T03:16:48.557Z,2.80
2023-01-20T03:19:22.688Z,3.00
2023-01-20T03:21:57.783Z,3.38
2023-01-20T03:24:35.957Z,3.00
2023-01-20T03:27:08.831Z,2.76
2023-01-20T03:29:41.834Z,2.60
2023-01-20T03:32:15.063Z,2.75
2023-01-20T03:34:48.122Z,3.12
2023-01-20T03:37:23.165Z,2.98
2023-01-20T03:39:56.985Z,3.08
2023-01-20T03:42:37.117Z,3.51
2023-01-20T03:45:17.523Z,3.36
2023-01-20T03:47:56.979Z,3.58
2023-01-20T03:50:41.659Z,3.71
2023-01-20T03:53:33.524Z,3.16
2023-01-20T03:56:11.825Z,3.48
2023-01-20T03:58:50.188Z,3.48
2023-01-20T04:01:30.949Z,2.64
2023-01-20T04:04:04.642Z,2.47
2023-01-20T04:06:38.481Z,3.14
2023-01-20T04:09:19.483Z,3.24
2023-01-20T04:11:52.131Z,2.48
2023-01-20T04:14:24.047Z,2.63
2023-01-20T04:16:59.369Z,2.49
2023-01-20T04:19:31.722Z,2.52
2023-01-20T04:22:09.451Z,2.32
2023-01-20T04:24:47.959Z,2.73
2023-01-20T04:27:20.343Z,2.47
2023-01-20T04:29:52.572Z,2.12
2023-01-20T04:32:25.180Z,2.30
2023-01-20T04:34:57.290Z,2.94
2023-01-20T04:37:29.570Z,3.04
2023-01-20T04:40:04.302Z,3.42
2023-01-20T04:42:36.854Z,3.55
2023-01-20T04:45:09.709Z,3.31
2023-01-20T04:47:42.307Z,3.37
2023-01-20T04:50:16.639Z,3.34
2023-01-20T04:52:48.927Z,3.12
2023-01-20T04:55:23.771Z,3.03
2023-01-20T04:57:56.219Z,2.94
2023-01-20T05:00:28.833Z,2.73
2023-01-20T05:03:02.810Z,2.60
2023-01-20T05:05:35.117Z,2.60
2023-01-20T05:08:08.061Z,2.80
2023-01-20T05:10:42.958Z,2.55
2023-01-20T05:13:15.891Z,2.40
2023-01-20T05:15:48.456Z,2.34
2023-01-20T05:18:20.860Z,2.72
2023-01-20T05:20:53.425Z,2.33
2023-01-20T05:23:25.812Z,2.54
2023-01-20T05:26:00.702Z,2.69
2023-01-20T05:28:33.100Z,2.69
2023-01-20T05:31:05.455Z,2.73
2023-01-20T05:33:40.117Z,3.10
2023-01-20T05:36:14.329Z,3.24
2023-01-20T05:38:46.976Z,3.56
2023-01-20T05:41:21.932Z,3.40
2023-01-20T05:43:56.797Z,2.85
2023-01-20T05:46:28.978Z,2.60
2023-01-20T05:49:03.294Z,2.88
2023-01-20T05:51:35.716Z,3.18
2023-01-20T05:54:08.482Z,2.97
2023-01-20T05:56:43.359Z,2.57
2023-01-20T05:59:17.659Z,2.90
2023-01-20T06:01:50.075Z,2.94
2023-01-20T06:04:22.503Z,3.07
2023-01-20T06:06:53.966Z,3.10
2023-01-20T06:09:26.073Z,2.92
2023-01-20T06:12:00.257Z,2.18
2023-01-20T06:14:32.246Z,2.42
2023-01-20T06:17:04.263Z,2.40
2023-01-20T06:19:36.433Z,2.75
2023-01-20T06:22:10.341Z,2.15
2023-01-20T06:24:42.996Z,1.95
2023-01-20T06:27:17.406Z,2.64
2023-01-20T06:29:51.102Z,2.77
2023-01-20T06:32:23.274Z,2.47
2023-01-20T06:34:59.121Z,2.76
2023-01-20T06:37:31.108Z,3.03
2023-01-20T06:40:03.269Z,2.68
2023-01-20T06:42:38.958Z,3.05
2023-01-20T06:45:12.886Z,3.06
2023-01-20T06:47:45.306Z,2.54
2023-01-20T06:50:18.241Z,2.81
2023-01-20T06:52:50.129Z,2.70
2023-01-20T06:55:22.372Z,2.67
2023-01-20T06:57:57.667Z,2.81
2023-01-20T07:00:30.318Z,2.85
2023-01-20T07:03:02.186Z,2.11
2023-01-20T07:05:34.813Z,1.87
2023-01-20T07:08:06.915Z,1.97
2023-01-20T07:10:39.471Z,2.40
2023-01-20T07:13:14.958Z,1.82
2023-01-20T07:15:52.463Z,1.98
2023-01-20T07:18:27.442Z,2.16
2023-01-20T07:21:00.639Z,2.39
2023-01-20T07:23:34.190Z,2.54
2023-01-20T07:26:13.910Z,2.44
2023-01-20T07:28:48.720Z,2.07
2023-01-20T07:31:25.296Z,2.03
2023-01-20T07:33:58.868Z,1.39
2023-01-20T07:36:31.095Z,1.28
2023-01-20T07:39:02.512Z,1.13
2023-01-20T07:41:34.951Z,1.94
2023-01-20T07:44:09.133Z,1.72
2023-01-20T07:46:40.879Z,2.05
2023-01-20T07:49:13.641Z,2.37
2023-01-20T07:51:45.103Z,2.49
2023-01-20T07:54:16.523Z,2.52
2023-01-20T07:56:48.567Z,2.58
2023-01-20T07:59:22.170Z,2.26
2023-01-20T08:01:53.868Z,2.33
2023-01-20T08:04:25.326Z,2.23
2023-01-20T08:06:56.786Z,2.43
2023-01-20T08:09:29.406Z,2.59
2023-01-20T08:12:02.145Z,2.31
2023-01-20T08:14:39.969Z,2.11
2023-01-20T08:17:15.093Z,1.90
2023-01-20T08:19:47.696Z,1.99
2023-01-20T08:22:26.022Z,1.84
2023-01-20T08:25:01.610Z,1.85
2023-01-20T08:27:33.453Z,1.65
2023-01-20T08:30:09.160Z,2.24
2023-01-20T08:32:40.861Z,2.25
2023-01-20T08:35:16.446Z,2.48
2023-01-20T08:38:03.583Z,2.48
2023-01-20T08:40:36.030Z,2.65
2023-01-20T08:43:07.879Z,2.33
2023-01-20T08:45:44.084Z,2.02
2023-01-20T08:48:19.723Z,2.43
2023-01-20T08:50:51.984Z,2.33
2023-01-20T08:53:23.760Z,2.21
2023-01-20T08:56:00.069Z,2.31
2023-01-20T08:58:33.044Z,2.62
2023-01-20T09:01:11.995Z,2.97
2023-01-20T09:03:58.928Z,3.27
2023-01-20T09:06:42.168Z,2.99
2023-01-20T09:09:15.388Z,2.47
2023-01-20T09:11:51.589Z,2.23
2023-01-20T09:14:24.106Z,2.06
2023-01-20T09:16:59.057Z,1.97
2023-01-20T09:19:31.285Z,2.37
2023-01-20T09:22:03.659Z,2.74
2023-01-20T09:24:35.884Z,2.86
2023-01-20T09:27:08.441Z,2.56
2023-01-20T09:29:40.721Z,2.50
2023-01-20T09:32:17.082Z,2.98
2023-01-20T09:34:49.726Z,2.68
2023-01-20T09:37:34.948Z,2.94
2023-01-20T09:40:20.123Z,2.60
2023-01-20T09:43:20.078Z,2.30
2023-01-20T09:46:00.265Z,2.77
2023-01-20T09:48:58.745Z,2.73
2023-01-20T09:52:00.653Z,2.18
2023-01-20T09:54:42.291Z,1.67
2023-01-20T09:57:17.400Z,2.35
2023-01-20T09:59:54.085Z,2.53
2023-01-20T10:02:31.641Z,2.91
2023-01-20T10:05:15.723Z,2.40
2023-01-20T10:07:56.231Z,2.78
2023-01-20T10:10:34.821Z,2.89
2023-01-20T10:13:12.300Z,2.08
2023-01-20T10:15:50.778Z,2.18
2023-01-20T10:18:30.864Z,1.73
2023-01-20T10:21:14.108Z,2.13
2023-01-20T10:23:54.231Z,2.44
2023-01-20T10:26:33.755Z,3.15
2023-01-20T10:29:10.236Z,3.69
2023-01-20T10:31:50.577Z,3.42
2023-01-20T10:34:24.539Z,3.10
2023-01-20T10:37:08.257Z,2.67
2023-01-20T10:39:50.462Z,2.99
2023-01-20T10:42:25.256Z,3.53
2023-01-20T10:44:58.625Z,3.63
2023-01-20T10:47:47.485Z,3.79
2023-01-20T10:50:39.589Z,3.36
2023-01-20T10:53:34.122Z,3.06
2023-01-20T10:56:19.718Z,3.50
2023-01-20T10:58:52.956Z,3.84
2023-01-20T11:01:25.697Z,3.78
2023-01-20T11:03:58.767Z,3.73
2023-01-20T11:06:31.523Z,3.66
2023-01-20T11:09:23.716Z,3.47
2023-01-20T11:11:56.445Z,3.13
2023-01-20T11:14:29.646Z,3.28
2023-01-20T11:17:06.199Z,2.86
2023-01-20T11:19:54.242Z,2.99
2023-01-20T11:22:33.638Z,3.47
2023-01-20T11:25:26.061Z,3.60
2023-01-20T11:27:58.881Z,3.62
2023-01-20T11:30:35.808Z,3.29
2023-01-20T11:33:13.371Z,3.68
2023-01-20T11:36:01.096Z,3.72
2023-01-20T11:38:35.235Z,3.89
2023-01-20T11:41:22.438Z,3.33
2023-01-20T11:43:56.324Z,3.06
2023-01-20T11:46:32.699Z,3.19
2023-01-20T11:49:25.878Z,3.72
2023-01-20T11:52:01.287Z,3.73
2023-01-20T11:54:35.882Z,3.80
2023-01-20T11:57:21.116Z,3.27
2023-01-20T11:59:53.599Z,3.70
2023-01-20T12:02:28.038Z,3.79
2023-01-20T12:05:10.762Z,3.41
2023-01-20T12:07:48.276Z,3.92
2023-01-20T12:10:26.126Z,3.86
2023-01-20T12:13:07.516Z,3.66
2023-01-20T12:15:45.602Z,3.64
2023-01-20T12:18:22.517Z,3.27
2023-01-20T12:21:01.718Z,3.93
2023-01-20T12:23:49.005Z,3.52
2023-01-20T12:26:23.729Z,3.70
2023-01-20T12:29:04.860Z,3.25
2023-01-20T12:31:37.692Z,2.68
2023-01-20T12:34:17.024Z,3.06
2023-01-20T12:37:09.901Z,3.40
2023-01-20T12:40:25.663Z,3.82
2023-01-20T12:43:35.868Z,4.26
2023-01-20T12:46:28.441Z,4.47
2023-01-20T12:49:26.621Z,4.54
2023-01-20T12:52:17.754Z,4.55
2023-01-20T12:55:20.155Z,4.24
2023-01-20T12:58:03.832Z,3.77
2023-01-20T13:01:16.941Z,3.73
2023-01-20T13:04:28.098Z,4.13
2023-01-20T13:07:24.310Z,4.14
2023-01-20T13:10:12.779Z,4.50
2023-01-20T13:12:54.375Z,4.50
2023-01-20T13:15:32.676Z,4.59
2023-01-20T13:18:22.150Z,4.88
2023-01-20T13:20:58.198Z,5.15
2023-01-20T13:23:33.440Z,4.86
2023-01-20T13:26:08.873Z,4.68
2023-01-20T13:28:42.124Z,4.32
2023-01-20T13:31:46.049Z,4.35
2023-01-20T13:34:36.637Z,4.74
2023-01-20T13:37:30.484Z,4.75
2023-01-20T13:40:03.671Z,4.77
2023-01-20T13:42:52.587Z,4.71
2023-01-20T13:45:30.042Z,4.87
2023-01-20T13:48:05.909Z,4.75
2023-01-20T13:50:40.603Z,4.08
2023-01-20T13:53:29.465Z,4.18
2023-01-20T13:56:04.426Z,4.55
2023-01-20T13:58:38.066Z,4.78
2023-01-20T14:01:15.997Z,4.85
2023-01-20T14:04:04.075Z,4.51
2023-01-20T14:06:38.281Z,4.02
2023-01-20T14:09:23.027Z,4.61
2023-01-20T14:11:58.465Z,4.80
2023-01-20T14:14:31.467Z,4.73
2023-01-20T14:17:05.646Z,4.84
2023-01-20T14:19:38.962Z,4.84
2023-01-20T14:22:23.161Z,4.71
2023-01-20T14:25:00.893Z,4.58
2023-01-20T14:27:37.890Z,4.46
2023-01-20T14:30:24.197Z,5.07
2023-01-20T14:32:57.910Z,4.54
2023-01-20T14:35:34.722Z,4.68
2023-01-20T14:38:07.801Z,4.47
2023-01-20T14:40:44.839Z,4.29
2023-01-20T14:43:22.379Z,3.77
2023-01-20T14:45:56.568Z,3.92
2023-01-20T14:48:35.005Z,3.80
2023-01-20T14:51:09.926Z,4.35
2023-01-20T14:53:43.880Z,4.78
2023-01-20T14:56:25.123Z,4.54
2023-01-20T14:58:59.690Z,4.73
2023-01-20T15:01:32.597Z,4.51
2023-01-20T15:04:13.407Z,4.35
2023-01-20T15:06:45.927Z,4.06
2023-01-20T15:09:31.409Z,4.53
2023-01-20T15:12:34.120Z,4.23
2023-01-20T15:15:28.194Z,4.06
2023-01-20T15:18:21.777Z,4.01
2023-01-20T15:21:11.793Z,4.46
2023-01-20T15:23:53.279Z,4.05
2023-01-20T15:26:30.775Z,4.05
2023-01-20T15:29:04.436Z,4.29
2023-01-20T15:31:39.969Z,4.54
2023-01-20T15:34:12.758Z,4.57
2023-01-20T15:36:46.918Z,4.42
2023-01-20T15:39:20.645Z,4.10
2023-01-20T15:41:57.414Z,4.18
2023-01-20T15:44:30.118Z,4.04
2023-01-20T15:47:05.840Z,3.97
2023-01-20T15:49:38.437Z,3.78
2023-01-20T15:52:13.442Z,3.71
2023-01-20T15:54:46.041Z,3.85
2023-01-20T15:57:21.078Z,3.43
2023-01-20T15:59:53.475Z,3.63
2023-01-20T16:02:29.297Z,3.53
2023-01-20T16:05:02.627Z,3.42
2023-01-20T16:07:35.586Z,3.50
2023-01-20T16:10:08.865Z,3.30
2023-01-20T16:12:41.869Z,3.29
2023-01-20T16:15:18.612Z,3.09
2023-01-20T16:17:54.650Z,3.26
2023-01-20T16:20:29.787Z,2.98
2023-01-20T16:23:02.707Z,2.98
2023-01-20T16:25:35.745Z,3.04
2023-01-20T16:28:18.869Z,3.50
2023-01-20T16:30:51.836Z,3.30
2023-01-20T16:33:29.826Z,3.39
2023-01-20T16:36:02.507Z,3.40
2023-01-20T16:38:34.909Z,3.64
2023-01-20T16:41:09.614Z,3.48
2023-01-20T16:43:46.164Z,3.99
2023-01-20T16:46:25.082Z,3.63
2023-01-20T16:49:06.117Z,3.45
2023-01-20T16:51:38.110Z,3.54
2023-01-20T16:54:12.534Z,3.81
2023-01-20T16:56:44.639Z,3.50
2023-01-20T16:59:31.758Z,3.48
2023-01-20T17:05:43.437Z,3.62
2023-01-20T17:08:15.700Z,3.85
2023-01-20T17:10:53.209Z,3.77
2023-01-20T17:13:25.280Z,3.64
2023-01-20T17:15:59.605Z,3.82
2023-01-20T17:18:31.918Z,3.36
2023-01-20T17:21:10.405Z,3.67
2023-01-20T17:23:43.276Z,3.70
2023-01-20T17:26:15.764Z,3.64
2023-01-20T17:28:48.716Z,3.52
2023-01-20T17:31:21.410Z,3.41
2023-01-20T17:33:54.260Z,3.16
2023-01-20T17:36:29.863Z,3.58
2023-01-20T17:39:02.158Z,3.60
2023-01-20T17:41:34.999Z,3.28
2023-01-20T17:44:08.911Z,3.40
2023-01-20T17:46:41.565Z,3.55
2023-01-20T17:49:13.931Z,3.56
2023-01-20T17:51:49.309Z,3.40
2023-01-20T17:54:21.724Z,3.24
2023-01-20T17:56:54.235Z,3.48
2023-01-20T17:59:26.679Z,3.38
2023-01-20T18:01:59.148Z,3.63
2023-01-20T18:04:31.567Z,3.23
2023-01-20T18:07:06.818Z,2.76
2023-01-20T18:09:39.872Z,2.84
2023-01-20T18:12:13.662Z,2.50
2023-01-20T18:14:45.812Z,2.86
2023-01-20T18:17:21.119Z,2.89
2023-01-20T18:19:53.422Z,3.14
2023-01-20T18:22:28.707Z,3.26
2023-01-20T18:25:03.695Z,3.14
2023-01-20T18:27:36.512Z,2.88
2023-01-20T18:30:09.649Z,2.81
2023-01-20T18:32:42.455Z,2.46
2023-01-20T18:35:14.875Z,2.81
2023-01-20T18:37:50.149Z,2.84
2023-01-20T18:40:22.565Z,3.11
2023-01-20T18:42:55.298Z,2.92
2023-01-20T18:45:29.719Z,2.63
2023-01-20T18:48:02.555Z,2.45
2023-01-20T18:50:34.744Z,2.71
2023-01-20T18:53:10.004Z,2.62
2023-01-20T18:55:42.417Z,2.77
2023-01-20T18:58:16.818Z,2.87
2023-01-20T19:02:38.110Z,2.71
2023-01-20T19:05:11.519Z,2.99
2023-01-20T19:07:43.645Z,2.62
2023-01-20T19:10:16.435Z,2.74
2023-01-20T19:12:48.945Z,2.80
2023-01-20T19:15:21.863Z,2.57
2023-01-20T19:17:57.296Z,2.60
2023-01-20T19:20:29.592Z,2.42
2023-01-20T19:23:03.002Z,2.01
2023-01-20T19:25:35.301Z,2.23
2023-01-20T19:28:09.453Z,2.24
2023-01-20T19:30:41.934Z,2.13
2023-01-20T19:33:17.815Z,2.38
2023-01-20T19:35:49.907Z,2.45
2023-01-20T19:38:21.663Z,2.44
2023-01-20T19:40:53.852Z,2.59
2023-01-20T19:43:25.902Z,2.47
2023-01-20T19:45:58.833Z,2.34
2023-01-20T19:48:34.089Z,2.32
2023-01-20T19:51:07.372Z,1.89
2023-01-20T19:53:39.905Z,2.14
2023-01-20T19:56:14.426Z,2.21
2023-01-20T19:58:47.795Z,2.11
2023-01-20T20:01:22.784Z,2.19
2023-01-20T20:03:57.809Z,2.08
2023-01-20T20:06:32.098Z,2.16
2023-01-20T20:09:06.453Z,2.51
2023-01-20T20:11:38.375Z,2.51
2023-01-20T20:14:13.644Z,2.26
2023-01-20T20:16:46.231Z,2.25
2023-01-20T20:19:22.338Z,2.08
2023-01-20T20:21:56.686Z,2.39
2023-01-20T20:24:28.449Z,2.27
2023-01-20T20:27:02.480Z,1.98
2023-01-20T20:29:34.690Z,2.31
2023-01-20T20:32:06.629Z,2.11
2023-01-20T20:34:41.123Z,2.19
2023-01-20T20:37:13.133Z,2.53
2023-01-20T20:39:46.098Z,2.47
2023-01-20T20:42:18.118Z,2.66
2023-01-20T20:44:50.011Z,2.09
2023-01-20T20:47:22.072Z,2.44
2023-01-20T20:49:56.341Z,2.29
2023-01-20T20:52:28.640Z,1.87
2023-01-20T20:55:00.411Z,1.72
2023-01-20T20:57:32.429Z,1.97
2023-01-20T21:00:04.168Z,1.32
2023-01-20T21:02:39.843Z,1.08
2023-01-20T21:05:13.992Z,1.09
2023-01-20T21:07:46.155Z,1.34
2023-01-20T21:10:19.094Z,1.44
2023-01-20T21:12:50.521Z,1.48
2023-01-20T21:15:21.839Z,1.63
2023-01-20T21:17:53.449Z,1.62
2023-01-20T21:20:29.608Z,1.82
2023-01-20T21:23:01.736Z,1.98
2023-01-20T21:25:34.297Z,2.00
2023-01-20T21:28:06.291Z,1.83
2023-01-20T21:30:37.907Z,1.49
2023-01-20T21:33:13.723Z,1.54
2023-01-20T21:35:47.793Z,1.54
2023-01-20T21:38:22.543Z,1.70
2023-01-20T21:41:02.891Z,1.72
2023-01-20T21:43:47.524Z,1.96
2023-01-20T21:46:19.024Z,1.80
2023-01-20T21:49:03.456Z,1.63
2023-01-20T21:51:49.843Z,1.90
2023-01-20T21:54:21.650Z,1.67
2023-01-20T21:56:55.046Z,1.73
2023-01-20T21:59:27.715Z,2.08
2023-01-20T22:02:00.524Z,1.83
2023-01-20T22:04:32.392Z,1.91
2023-01-20T22:07:06.334Z,1.75
2023-01-20T22:09:38.082Z,1.53
2023-01-20T22:12:10.348Z,1.52
2023-01-20T22:14:42.559Z,1.42
2023-01-20T22:17:15.519Z,1.36
2023-01-20T22:19:47.495Z,1.80
2023-01-20T22:22:21.577Z,1.76
2023-01-20T22:24:54.426Z,1.77
2023-01-20T22:27:30.876Z,1.43
2023-01-20T22:30:02.803Z,1.66
2023-01-20T22:32:34.492Z,2.01
2023-01-20T22:35:07.536Z,1.70
2023-01-20T22:37:41.610Z,1.79
2023-01-20T22:40:18.115Z,1.89
2023-01-20T22:42:52.859Z,1.63
2023-01-20T22:45:24.367Z,1.63
2023-01-20T22:47:55.883Z,1.41
2023-01-20T22:50:27.137Z,1.48
2023-01-20T22:53:01.028Z,1.58
2023-01-20T22:55:34.013Z,1.34
2023-01-20T22:58:05.670Z,1.36
2023-01-20T23:00:37.419Z,1.15
2023-01-20T23:03:08.671Z,1.29
2023-01-20T23:05:41.010Z,1.29
2023-01-20T23:08:15.309Z,1.24
2023-01-20T23:10:50.047Z,1.49
2023-01-20T23:13:21.644Z,1.34
2023-01-20T23:15:54.428Z,1.16
2023-01-20T23:18:27.767Z,1.30
2023-01-20T23:21:01.922Z,1.49
2023-01-20T23:23:38.400Z,1.23
2023-01-20T23:26:16.514Z,1.28
2023-01-20T23:28:55.742Z,1.25
2023-01-20T23:31:35.626Z,1.59
2023-01-20T23:34:08.951Z,1.29
2023-01-20T23:36:47.271Z,1.09
2023-01-20T23:39:21.844Z,1.40
2023-01-20T23:41:56.276Z,1.27
2023-01-20T23:44:28.474Z,1.00
2023-01-20T23:47:00.761Z,1.05
2023-01-20T23:49:32.727Z,1.26
2023-01-20T23:52:13.137Z,0.98
2023-01-20T23:54:52.939Z,0.90
2023-01-20T23:57:27.868Z,1.19
